createdAt,value
2023-03-17T00:01:27.698Z,1.81
2023-03-17T00:03:55.384Z,2.15
2023-03-17T00:06:24.791Z,5.05
2023-03-17T00:08:52.349Z,7.47
2023-03-17T00:11:20.011Z,6.79
2023-03-17T00:13:47.675Z,5.59
2023-03-17T00:16:15.900Z,4.76
2023-03-17T00:18:43.625Z,4.22
2023-03-17T00:21:12.208Z,3.87
2023-03-17T00:23:39.865Z,3.61
2023-03-17T00:26:07.523Z,3.40
2023-03-17T00:28:35.183Z,3.21
2023-03-17T00:31:03.506Z,3.03
2023-03-17T00:33:33.250Z,2.88
2023-03-17T00:36:01.573Z,2.74
2023-03-17T00:38:29.929Z,2.61
2023-03-17T00:40:57.585Z,2.46
2023-03-17T00:43:25.447Z,2.33
2023-03-17T00:45:53.113Z,2.20
2023-03-17T00:48:20.974Z,2.09
2023-03-17T00:50:48.841Z,1.96
2023-03-17T00:53:16.910Z,1.86
2023-03-17T00:55:44.779Z,1.77
2023-03-17T00:58:12.645Z,1.69
2023-03-17T01:00:40.352Z,1.64
2023-03-17T01:03:08.173Z,1.59
2023-03-17T01:05:35.765Z,1.54
2023-03-17T01:08:03.905Z,1.50
2023-03-17T01:10:31.994Z,1.47
2023-03-17T01:12:59.950Z,1.44
2023-03-17T01:15:27.606Z,1.44
2023-03-17T01:17:55.920Z,1.42
2023-03-17T01:20:23.797Z,1.40
2023-03-17T01:22:51.612Z,1.38
2023-03-17T01:25:19.215Z,1.37
2023-03-17T01:27:46.840Z,1.33
2023-03-17T01:30:14.911Z,1.28
2023-03-17T01:32:42.805Z,1.21
2023-03-17T01:35:10.537Z,1.16
2023-03-17T01:37:38.616Z,1.11
2023-03-17T01:40:06.275Z,1.09
2023-03-17T01:42:34.248Z,1.08
2023-03-17T01:45:01.903Z,1.08
2023-03-17T01:47:32.634Z,1.51
2023-03-17T01:50:00.808Z,4.64
2023-03-17T01:52:28.993Z,7.18
2023-03-17T01:54:56.853Z,6.47
2023-03-17T01:57:24.510Z,5.22
2023-03-17T01:59:52.287Z,4.38
2023-03-17T02:02:19.948Z,3.83
2023-03-17T02:04:47.604Z,3.45
2023-03-17T02:07:15.166Z,3.17
2023-03-17T02:09:42.818Z,2.95
2023-03-17T02:12:10.477Z,2.74
2023-03-17T02:14:38.045Z,2.54
2023-03-17T02:17:05.699Z,2.36
2023-03-17T02:19:34.385Z,2.21
2023-03-17T02:22:02.780Z,2.06
2023-03-17T02:24:30.945Z,1.90
2023-03-17T02:26:58.803Z,1.73
2023-03-17T02:29:27.801Z,1.58
2023-03-17T02:31:55.465Z,1.43
2023-03-17T02:34:23.121Z,1.30
2023-03-17T02:36:50.840Z,1.18
2023-03-17T02:39:18.551Z,1.08
2023-03-17T02:41:46.312Z,0.99
2023-03-17T02:44:13.973Z,0.91
2023-03-17T02:46:41.736Z,0.82
2023-03-17T02:49:09.402Z,0.75
2023-03-17T02:51:37.378Z,0.69
2023-03-17T02:54:05.032Z,0.63
2023-03-17T02:56:33.010Z,0.59
2023-03-17T02:59:00.660Z,0.56
2023-03-17T03:01:29.641Z,0.53
2023-03-17T03:03:57.423Z,0.50
2023-03-17T03:06:25.081Z,0.89
2023-03-17T03:08:52.743Z,4.01
2023-03-17T03:11:20.613Z,6.68
2023-03-17T03:13:48.290Z,5.99
2023-03-17T03:16:15.865Z,4.70
2023-03-17T03:18:43.594Z,3.81
2023-03-17T03:21:11.255Z,3.24
2023-03-17T03:23:38.932Z,2.87
2023-03-17T03:26:06.585Z,2.59
2023-03-17T03:28:34.241Z,2.36
2023-03-17T03:31:01.948Z,2.16
2023-03-17T03:33:29.668Z,2.00
2023-03-17T03:35:58.284Z,1.85
2023-03-17T03:38:26.326Z,1.71
2023-03-17T03:40:53.888Z,1.58
2023-03-17T03:43:23.882Z,1.45
2023-03-17T03:45:51.919Z,1.34
2023-03-17T03:48:19.640Z,1.25
2023-03-17T03:50:47.294Z,1.15
2023-03-17T03:53:15.471Z,1.08
2023-03-17T03:55:43.120Z,1.00
2023-03-17T03:58:11.500Z,0.92
2023-03-17T04:00:39.158Z,0.84
2023-03-17T04:03:06.865Z,0.76
2023-03-17T04:05:34.488Z,0.68
2023-03-17T04:08:02.151Z,0.59
2023-03-17T04:10:30.030Z,0.50
2023-03-17T04:12:57.813Z,0.93
2023-03-17T04:15:25.440Z,4.12
2023-03-17T04:17:55.249Z,6.56
2023-03-17T04:20:22.917Z,5.66
2023-03-17T04:22:50.683Z,4.36
2023-03-17T04:25:18.972Z,3.48
2023-03-17T04:27:46.819Z,2.93
2023-03-17T04:30:14.805Z,2.55
2023-03-17T04:32:42.596Z,2.26
2023-03-17T04:35:11.135Z,2.00
2023-03-17T04:37:39.106Z,1.76
2023-03-17T04:40:08.707Z,1.56
2023-03-17T04:42:36.370Z,1.39
2023-03-17T04:45:04.143Z,1.23
2023-03-17T04:47:32.303Z,1.10
2023-03-17T04:50:00.075Z,0.98
2023-03-17T04:52:27.835Z,0.87
2023-03-17T04:54:55.598Z,0.76
2023-03-17T04:57:24.691Z,0.65
2023-03-17T04:59:52.412Z,0.56
2023-03-17T05:02:26.460Z,0.49
2023-03-17T05:04:54.849Z,0.42
2023-03-17T05:07:22.610Z,0.37
2023-03-17T05:09:50.477Z,0.33
2023-03-17T05:12:18.240Z,0.29
2023-03-17T05:14:46.824Z,0.28
2023-03-17T05:17:14.704Z,0.81
2023-03-17T05:19:42.761Z,3.92
2023-03-17T05:22:10.731Z,6.43
2023-03-17T05:24:38.397Z,5.71
2023-03-17T05:27:06.257Z,4.48
2023-03-17T05:29:34.023Z,3.67
2023-03-17T05:32:01.687Z,3.13
2023-03-17T05:34:29.347Z,2.77
2023-03-17T05:36:57.210Z,2.51
2023-03-17T05:39:24.976Z,2.29
2023-03-17T05:41:52.637Z,2.09
2023-03-17T05:44:21.019Z,1.94
2023-03-17T05:46:48.679Z,1.79
2023-03-17T05:49:16.352Z,1.65
2023-03-17T05:51:44.003Z,1.55
2023-03-17T05:54:11.669Z,1.45
2023-03-17T05:56:39.427Z,1.37
2023-03-17T05:59:07.089Z,1.31
2023-03-17T06:01:34.856Z,1.29
2023-03-17T06:04:02.822Z,1.28
2023-03-17T06:06:30.485Z,1.27
2023-03-17T06:08:58.252Z,1.27
2023-03-17T06:11:26.937Z,1.28
2023-03-17T06:13:54.800Z,1.30
2023-03-17T06:16:22.716Z,1.33
2023-03-17T06:18:50.739Z,1.36
2023-03-17T06:21:18.920Z,1.40
2023-03-17T06:23:46.675Z,1.44
2023-03-17T06:26:14.444Z,1.49
2023-03-17T06:28:42.105Z,2.01
2023-03-17T06:31:09.921Z,5.08
2023-03-17T06:33:38.243Z,7.42
2023-03-17T06:36:06.677Z,6.78
2023-03-17T06:38:34.489Z,5.70
2023-03-17T06:41:02.153Z,5.00
2023-03-17T06:43:29.913Z,4.56
2023-03-17T06:45:57.575Z,4.26
2023-03-17T06:48:25.347Z,4.04
2023-03-17T06:50:53.104Z,3.89
2023-03-17T06:53:21.070Z,3.77
2023-03-17T06:55:48.734Z,3.68
2023-03-17T06:58:17.316Z,3.61
2023-03-17T07:00:45.723Z,3.54
2023-03-17T07:03:13.567Z,3.49
2023-03-17T07:05:42.044Z,3.46
2023-03-17T07:08:09.702Z,3.45
2023-03-17T07:10:37.463Z,3.43
2023-03-17T07:13:07.895Z,3.42
2023-03-17T07:15:36.171Z,3.43
2023-03-17T07:18:04.240Z,3.44
2023-03-17T07:20:32.032Z,3.47
2023-03-17T07:22:59.870Z,3.51
2023-03-17T07:25:27.533Z,3.55
2023-03-17T07:27:55.196Z,3.60
2023-03-17T07:30:22.869Z,3.66
2023-03-17T07:32:50.646Z,3.73
2023-03-17T07:35:19.568Z,3.81
2023-03-17T07:37:47.583Z,3.88
2023-03-17T07:40:15.341Z,3.96
2023-03-17T07:42:43.007Z,4.04
2023-03-17T07:45:10.799Z,4.12
2023-03-17T07:47:39.454Z,4.19
2023-03-17T07:50:07.113Z,4.26
2023-03-17T07:52:34.883Z,4.34
2023-03-17T07:55:02.869Z,4.43
2023-03-17T07:57:30.633Z,4.53
2023-03-17T07:59:58.988Z,4.63
2023-03-17T08:02:26.684Z,4.72
2023-03-17T08:04:54.517Z,4.82
2023-03-17T08:07:22.186Z,4.91
2023-03-17T08:09:50.113Z,5.00
2023-03-17T08:12:17.818Z,5.09
2023-03-17T08:14:45.473Z,5.18
2023-03-17T08:17:13.772Z,5.26
2023-03-17T08:19:41.512Z,5.35
2023-03-17T08:22:09.894Z,5.44
2023-03-17T08:24:38.614Z,5.51
2023-03-17T08:27:06.355Z,5.59
2023-03-17T08:29:34.121Z,5.66
2023-03-17T08:32:01.882Z,5.74
2023-03-17T08:34:29.529Z,5.82
2023-03-17T08:36:57.605Z,5.87
2023-03-17T08:39:25.572Z,5.95
2023-03-17T08:41:53.238Z,6.01
2023-03-17T08:44:22.017Z,6.08
2023-03-17T08:46:49.782Z,6.15
2023-03-17T08:49:17.651Z,6.22
2023-03-17T08:51:45.451Z,6.29
2023-03-17T08:54:13.180Z,6.36
2023-03-17T08:56:40.859Z,6.43
2023-03-17T08:59:08.720Z,6.50
2023-03-17T09:01:36.409Z,6.58
2023-03-17T09:04:04.234Z,6.66
2023-03-17T09:06:32.365Z,6.74
2023-03-17T09:09:00.598Z,6.82
2023-03-17T09:11:28.243Z,6.90
2023-03-17T09:13:56.006Z,6.99
2023-03-17T09:16:24.251Z,7.08
2023-03-17T09:18:52.155Z,7.16
2023-03-17T09:21:19.812Z,7.24
2023-03-17T09:23:47.509Z,7.32
2023-03-17T09:26:15.444Z,7.39
2023-03-17T09:28:43.753Z,7.46
2023-03-17T09:31:11.614Z,7.53
2023-03-17T09:33:39.870Z,7.59
2023-03-17T09:36:07.664Z,7.66
2023-03-17T09:38:36.002Z,7.73
2023-03-17T09:41:03.667Z,7.82
2023-03-17T09:43:31.433Z,7.91
2023-03-17T09:45:59.087Z,8.01
2023-03-17T09:48:27.569Z,8.09
2023-03-17T09:50:55.238Z,8.17
2023-03-17T09:53:22.897Z,8.27
2023-03-17T09:55:50.656Z,8.37
2023-03-17T09:58:18.419Z,8.46
2023-03-17T10:00:46.595Z,8.56
2023-03-17T10:03:14.666Z,8.65
2023-03-17T10:05:42.374Z,8.74
2023-03-17T10:08:27.070Z,8.82
2023-03-17T10:10:57.617Z,8.91
2023-03-17T10:13:25.468Z,8.99
2023-03-17T10:15:53.275Z,9.08
2023-03-17T10:18:22.237Z,9.17
2023-03-17T10:20:51.664Z,9.24
2023-03-17T10:23:19.620Z,9.31
2023-03-17T10:25:48.396Z,9.36
2023-03-17T10:28:16.248Z,9.44
2023-03-17T10:30:44.129Z,9.51
2023-03-17T10:33:12.819Z,9.57
2023-03-17T10:35:40.930Z,9.61
2023-03-17T10:38:14.348Z,9.63
2023-03-17T10:40:42.972Z,9.69
2023-03-17T10:43:11.349Z,9.76
2023-03-17T10:45:43.308Z,9.82
2023-03-17T10:48:12.509Z,9.87
2023-03-17T10:50:41.304Z,9.91
2023-03-17T10:53:08.959Z,9.96
2023-03-17T10:55:37.239Z,10.02
2023-03-17T10:58:05.005Z,10.09
2023-03-17T11:00:35.602Z,10.14
2023-03-17T11:03:03.517Z,10.18
2023-03-17T11:05:31.476Z,10.23
2023-03-17T11:07:59.231Z,10.27
2023-03-17T11:10:26.897Z,10.30
2023-03-17T11:12:54.557Z,10.33
2023-03-17T11:15:23.037Z,10.35
2023-03-17T11:17:50.800Z,10.37
2023-03-17T11:20:18.461Z,10.40
2023-03-17T11:22:46.739Z,10.44
2023-03-17T11:25:14.402Z,10.48
2023-03-17T11:27:42.471Z,10.51
2023-03-17T11:30:11.236Z,10.55
2023-03-17T11:32:39.990Z,10.60
2023-03-17T11:35:07.914Z,10.64
2023-03-17T11:37:36.264Z,10.67
2023-03-17T11:40:04.256Z,10.69
2023-03-17T11:42:32.134Z,10.71
2023-03-17T11:44:59.906Z,10.72
2023-03-17T11:47:28.580Z,10.73
2023-03-17T11:49:56.243Z,10.75
2023-03-17T11:52:24.014Z,10.77
2023-03-17T11:54:54.183Z,10.78
2023-03-17T11:57:23.020Z,10.81
2023-03-17T11:59:52.277Z,10.84
2023-03-17T12:02:19.970Z,10.90
2023-03-17T12:04:47.785Z,10.98
2023-03-17T12:07:15.601Z,11.03
2023-03-17T12:09:43.572Z,11.08
2023-03-17T12:12:11.433Z,11.14
2023-03-17T12:14:39.843Z,11.18
2023-03-17T12:17:07.577Z,11.23
2023-03-17T12:19:37.081Z,11.27
2023-03-17T12:22:04.743Z,11.30
2023-03-17T12:24:32.815Z,11.34
2023-03-17T12:27:00.792Z,11.38
2023-03-17T12:29:28.544Z,11.40
2023-03-17T12:31:56.207Z,11.44
2023-03-17T12:34:24.382Z,11.46
2023-03-17T12:36:52.453Z,11.47
2023-03-17T12:39:20.217Z,11.49
2023-03-17T12:41:48.187Z,11.49
2023-03-17T12:44:16.052Z,11.47
2023-03-17T12:46:43.885Z,11.47
2023-03-17T12:49:11.678Z,11.46
2023-03-17T12:51:40.161Z,11.47
2023-03-17T12:54:07.821Z,11.48
2023-03-17T12:56:35.503Z,11.49
2023-03-17T12:59:03.762Z,11.48
2023-03-17T13:01:32.574Z,11.49
2023-03-17T13:04:00.512Z,11.49
2023-03-17T13:06:28.342Z,11.47
2023-03-17T13:08:56.044Z,11.46
2023-03-17T13:11:23.704Z,11.47
2023-03-17T13:13:52.392Z,11.48
2023-03-17T13:16:20.113Z,11.49
2023-03-17T13:18:48.131Z,11.50
2023-03-17T13:21:16.504Z,11.51
2023-03-17T13:23:44.345Z,11.53
2023-03-17T13:26:12.035Z,11.56
2023-03-17T13:28:41.435Z,11.58
2023-03-17T13:31:10.297Z,11.62
2023-03-17T13:33:38.912Z,11.65
2023-03-17T13:36:06.607Z,11.68
2023-03-17T13:38:34.336Z,11.74
2023-03-17T13:41:01.994Z,11.77
2023-03-17T13:43:30.284Z,11.79
2023-03-17T13:45:57.932Z,11.81
2023-03-17T13:48:27.446Z,11.84
2023-03-17T13:50:55.102Z,11.86
2023-03-17T13:53:23.888Z,11.85
2023-03-17T13:55:53.033Z,11.82
2023-03-17T13:58:20.741Z,11.80
2023-03-17T14:00:49.233Z,11.77
2023-03-17T14:03:17.603Z,11.70
2023-03-17T14:05:45.782Z,11.64
2023-03-17T14:08:14.260Z,11.57
2023-03-17T14:10:43.662Z,11.52
2023-03-17T14:13:11.531Z,11.48
2023-03-17T14:15:42.261Z,11.45
2023-03-17T14:18:11.257Z,11.42
2023-03-17T14:20:39.021Z,11.40
2023-03-17T14:23:06.802Z,11.35
2023-03-17T14:25:34.547Z,11.33
2023-03-17T14:28:02.214Z,11.31
2023-03-17T14:30:30.824Z,11.29
2023-03-17T14:32:58.597Z,11.28
2023-03-17T14:35:26.524Z,11.28
2023-03-17T14:37:54.288Z,11.29
2023-03-17T14:40:22.467Z,11.35
2023-03-17T14:42:50.417Z,11.42
2023-03-17T14:45:18.093Z,11.50
2023-03-17T14:47:45.763Z,11.56
2023-03-17T14:50:13.635Z,11.61
2023-03-17T14:52:41.694Z,11.64
2023-03-17T14:55:09.559Z,11.65
2023-03-17T14:57:37.205Z,11.66
2023-03-17T15:00:05.295Z,11.65
2023-03-17T15:02:34.582Z,11.64
2023-03-17T15:05:02.429Z,11.62
2023-03-17T15:07:30.222Z,11.58
2023-03-17T15:09:58.090Z,11.54
2023-03-17T15:12:25.956Z,11.51
2023-03-17T15:14:53.721Z,11.48
2023-03-17T15:17:21.383Z,11.47
2023-03-17T15:19:49.174Z,11.48
2023-03-17T15:22:16.911Z,11.47
2023-03-17T15:24:44.776Z,11.44
2023-03-17T15:27:12.428Z,11.42
2023-03-17T15:29:40.101Z,11.41
2023-03-17T15:32:07.864Z,11.37
2023-03-17T15:34:35.527Z,11.32
2023-03-17T15:37:03.192Z,11.24
2023-03-17T15:39:30.849Z,11.17
2023-03-17T15:41:58.614Z,11.09
2023-03-17T15:44:26.582Z,11.01
2023-03-17T15:46:54.549Z,10.92
2023-03-17T15:49:25.253Z,10.83
2023-03-17T15:51:54.488Z,10.76
2023-03-17T15:54:22.445Z,10.71
2023-03-17T15:56:50.130Z,10.66
2023-03-17T15:59:17.885Z,10.61
2023-03-17T16:01:45.785Z,10.55
2023-03-17T16:04:13.881Z,10.47
2023-03-17T16:06:42.088Z,10.42
2023-03-17T16:09:09.749Z,10.35
2023-03-17T16:11:39.403Z,10.28
2023-03-17T16:14:08.013Z,10.21
2023-03-17T16:16:36.109Z,10.15
2023-03-17T16:19:05.006Z,10.09
2023-03-17T16:21:32.659Z,10.02
2023-03-17T16:24:00.427Z,9.96
2023-03-17T16:26:28.229Z,9.88
2023-03-17T16:28:56.055Z,9.82
2023-03-17T16:31:24.057Z,9.76
2023-03-17T16:33:52.950Z,9.70
2023-03-17T16:36:20.887Z,9.64
2023-03-17T16:38:49.368Z,9.58
2023-03-17T16:41:17.335Z,9.53
2023-03-17T16:43:45.202Z,9.48
2023-03-17T16:46:12.902Z,9.42
2023-03-17T16:48:40.732Z,9.38
2023-03-17T16:51:08.699Z,9.31
2023-03-17T16:53:36.467Z,9.26
2023-03-17T16:56:04.230Z,9.19
2023-03-17T16:58:31.905Z,9.13
2023-03-17T17:01:02.320Z,9.07
2023-03-17T17:03:30.087Z,8.99
2023-03-17T17:05:57.848Z,8.91
2023-03-17T17:08:25.612Z,8.84
2023-03-17T17:10:53.373Z,8.79
2023-03-17T17:13:21.041Z,8.72
2023-03-17T17:15:48.840Z,8.67
2023-03-17T17:18:16.670Z,8.61
2023-03-17T17:20:44.326Z,8.55
2023-03-17T17:23:11.998Z,8.49
2023-03-17T17:25:39.754Z,8.43
2023-03-17T17:28:07.418Z,8.39
2023-03-17T17:30:35.077Z,8.32
2023-03-17T17:33:02.877Z,8.27
2023-03-17T17:35:32.509Z,8.21
2023-03-17T17:38:00.827Z,8.15
2023-03-17T17:40:29.099Z,8.09
2023-03-17T17:42:58.095Z,8.04
2023-03-17T17:45:26.299Z,7.99
2023-03-17T17:47:54.035Z,7.94
2023-03-17T17:50:21.700Z,7.89
2023-03-17T17:52:49.462Z,7.84
2023-03-17T17:55:17.222Z,7.78
2023-03-17T17:57:44.988Z,7.74
2023-03-17T18:00:12.750Z,7.71
2023-03-17T18:02:40.520Z,7.67
2023-03-17T18:05:09.195Z,7.64
2023-03-17T18:07:36.872Z,7.60
2023-03-17T18:10:04.623Z,7.55
2023-03-17T18:12:32.284Z,7.50
2023-03-17T18:15:00.056Z,7.45
2023-03-17T18:17:28.247Z,7.41
2023-03-17T18:19:57.406Z,7.36
2023-03-17T18:22:25.183Z,7.33
2023-03-17T18:24:53.459Z,7.29
2023-03-17T18:27:21.530Z,7.26
2023-03-17T18:29:49.294Z,7.22
2023-03-17T18:32:16.959Z,7.19
2023-03-17T18:34:44.826Z,7.16
2023-03-17T18:37:12.691Z,7.11
2023-03-17T18:39:41.165Z,7.07
2023-03-17T18:42:08.839Z,7.03
2023-03-17T18:44:36.554Z,7.00
2023-03-17T18:47:04.257Z,6.95
2023-03-17T18:49:32.028Z,6.92
2023-03-17T18:51:59.994Z,6.88
2023-03-17T18:54:27.866Z,6.83
2023-03-17T18:56:56.029Z,6.80
2023-03-17T18:59:23.896Z,6.76
2023-03-17T19:01:51.564Z,6.73
2023-03-17T19:04:19.321Z,6.70
2023-03-17T19:06:47.192Z,6.65
2023-03-17T19:09:14.957Z,6.60
2023-03-17T19:11:43.124Z,6.56
2023-03-17T19:14:12.120Z,6.51
2023-03-17T19:16:40.444Z,6.48
2023-03-17T19:19:08.269Z,6.44
2023-03-17T19:21:36.022Z,6.40
2023-03-17T19:24:05.127Z,6.37
2023-03-17T19:26:33.808Z,6.34
2023-03-17T19:29:02.329Z,6.31
2023-03-17T19:31:30.357Z,6.27
2023-03-17T19:33:58.016Z,6.24
2023-03-17T19:36:26.292Z,6.22
2023-03-17T19:38:54.058Z,6.20
2023-03-17T19:41:21.824Z,6.17
2023-03-17T19:43:49.484Z,6.13
2023-03-17T19:46:17.613Z,6.11
2023-03-17T19:48:45.731Z,6.10
2023-03-17T19:51:13.619Z,6.08
2023-03-17T19:53:41.568Z,6.06
2023-03-17T19:56:11.179Z,6.03
2023-03-17T19:58:39.251Z,6.00
2023-03-17T20:01:07.783Z,5.99
2023-03-17T20:03:35.693Z,5.98
2023-03-17T20:06:06.338Z,5.96
2023-03-17T20:08:34.088Z,5.94
2023-03-17T20:11:02.261Z,5.92
2023-03-17T20:13:29.926Z,5.90
2023-03-17T20:15:57.808Z,5.89
2023-03-17T20:18:25.870Z,5.87
2023-03-17T20:20:53.642Z,5.86
2023-03-17T20:23:21.901Z,5.84
2023-03-17T20:25:49.869Z,5.83
2023-03-17T20:28:17.745Z,5.81
2023-03-17T20:30:45.525Z,5.80
2023-03-17T20:33:13.366Z,5.79
2023-03-17T20:35:41.441Z,5.77
2023-03-17T20:38:09.305Z,5.75
2023-03-17T20:40:36.966Z,5.73
2023-03-17T20:43:04.630Z,5.72
2023-03-17T20:45:32.698Z,5.71
2023-03-17T20:48:01.079Z,5.70
2023-03-17T20:50:31.441Z,5.68
2023-03-17T20:52:59.371Z,5.66
2023-03-17T20:55:27.034Z,5.64
2023-03-17T20:57:54.806Z,5.62
2023-03-17T21:00:22.561Z,5.60
2023-03-17T21:02:50.895Z,5.58
2023-03-17T21:05:19.935Z,5.56
2023-03-17T21:07:48.107Z,5.55
2023-03-17T21:10:15.880Z,5.55
2023-03-17T21:12:44.286Z,5.52
2023-03-17T21:15:16.082Z,5.52
2023-03-17T21:17:51.224Z,5.49
2023-03-17T21:20:23.942Z,5.46
2023-03-17T21:22:52.947Z,5.43
2023-03-17T21:25:20.679Z,5.40
2023-03-17T21:27:49.160Z,5.35
2023-03-17T21:30:16.825Z,5.33
2023-03-17T21:32:44.550Z,5.29
2023-03-17T21:35:12.451Z,5.27
2023-03-17T21:37:40.220Z,5.25
2023-03-17T21:40:08.193Z,5.22
2023-03-17T21:42:35.947Z,5.21
2023-03-17T21:45:03.615Z,5.19
2023-03-17T21:47:31.475Z,5.18
2023-03-17T21:49:59.241Z,5.16
2023-03-17T21:52:27.208Z,5.15
2023-03-17T21:54:54.978Z,5.13
2023-03-17T21:57:23.048Z,5.12
2023-03-17T21:59:51.012Z,5.11
2023-03-17T22:02:18.888Z,5.09
2023-03-17T22:04:47.260Z,5.08
2023-03-17T22:07:14.920Z,5.07
2023-03-17T22:09:42.694Z,5.06
2023-03-17T22:12:10.450Z,5.05
2023-03-17T22:14:38.212Z,5.04
2023-03-17T22:17:05.980Z,5.03
2023-03-17T22:19:33.844Z,5.03
2023-03-17T22:22:02.531Z,5.02
2023-03-17T22:24:31.831Z,5.01
2023-03-17T22:26:59.592Z,4.99
2023-03-17T22:29:27.260Z,4.97
2023-03-17T22:31:55.071Z,4.95
2023-03-17T22:34:23.705Z,4.94
2023-03-17T22:36:51.597Z,4.94
2023-03-17T22:39:19.338Z,4.92
2023-03-17T22:41:47.107Z,4.89
2023-03-17T22:44:14.765Z,4.85
2023-03-17T22:46:42.527Z,4.83
2023-03-17T22:49:10.296Z,4.81
2023-03-17T22:51:38.365Z,4.80
2023-03-17T22:54:06.742Z,4.78
2023-03-17T22:56:34.410Z,4.77
2023-03-17T22:59:02.199Z,4.75
2023-03-17T23:01:31.968Z,4.72
2023-03-17T23:03:59.790Z,4.70
2023-03-17T23:06:27.448Z,4.68
2023-03-17T23:08:55.172Z,4.65
2023-03-17T23:11:23.348Z,4.62
2023-03-17T23:13:51.632Z,4.60
2023-03-17T23:16:20.833Z,4.59
2023-03-17T23:18:49.091Z,4.56
2023-03-17T23:21:17.371Z,4.54
2023-03-17T23:23:45.446Z,4.52
2023-03-17T23:26:13.416Z,4.50
2023-03-17T23:28:41.171Z,4.48
2023-03-17T23:31:09.273Z,4.46
2023-03-17T23:33:37.521Z,4.43
2023-03-17T23:36:05.408Z,4.40
2023-03-17T23:38:34.596Z,4.37
2023-03-17T23:41:02.959Z,4.33
2023-03-17T23:43:31.033Z,4.32
2023-03-17T23:45:59.870Z,4.29
2023-03-17T23:48:27.682Z,4.28
2023-03-17T23:50:55.551Z,4.25
2023-03-17T23:53:23.620Z,4.25
2023-03-17T23:55:51.794Z,4.23
2023-03-17T23:58:19.661Z,4.22
